sensor_id;sensor_type;location;lat;lon;timestamp;temperature;humidity
13806;DHT22;6974;53.606;9.872;2023-07-24T00:01:12;18.70;99.90
13806;DHT22;6974;53.606;9.872;2023-07-24T00:03:39;18.80;99.90
13806;DHT22;6974;53.606;9.872;2023-07-24T00:06:07;18.80;99.90
13806;DHT22;6974;53.606;9.872;2023-07-24T00:08:35;18.70;99.90
13806;DHT22;6974;53.606;9.872;2023-07-24T00:11:02;18.70;99.90
13806;DHT22;6974;53.606;9.872;2023-07-24T00:13:30;18.70;99.90
13806;DHT22;6974;53.606;9.872;2023-07-24T00:15:57;18.70;99.90
13806;DHT22;6974;53.606;9.872;2023-07-24T00:18:24;18.70;99.90
13806;DHT22;6974;53.606;9.872;2023-07-24T00:20:51;18.70;99.90
13806;DHT22;6974;53.606;9.872;2023-07-24T00:23:18;18.70;99.90
13806;DHT22;6974;53.606;9.872;2023-07-24T00:25:46;18.70;99.90
13806;DHT22;6974;53.606;9.872;2023-07-24T00:28:13;18.70;99.90
13806;DHT22;6974;53.606;9.872;2023-07-24T00:30:40;18.70;99.90
13806;DHT22;6974;53.606;9.872;2023-07-24T00:33:06;18.60;99.90
13806;DHT22;6974;53.606;9.872;2023-07-24T00:35:33;18.70;99.90
13806;DHT22;6974;53.606;9.872;2023-07-24T00:38:00;18.60;99.90
13806;DHT22;6974;53.606;9.872;2023-07-24T00:40:27;18.60;99.90
13806;DHT22;6974;53.606;9.872;2023-07-24T00:42:55;18.70;99.90
13806;DHT22;6974;53.606;9.872;2023-07-24T00:45:22;18.60;99.90
13806;DHT22;6974;53.606;9.872;2023-07-24T00:47:50;18.70;99.90
13806;DHT22;6974;53.606;9.872;2023-07-24T00:50:17;18.70;99.90
13806;DHT22;6974;53.606;9.872;2023-07-24T00:52:44;18.70;99.90
13806;DHT22;6974;53.606;9.872;2023-07-24T00:55:13;18.70;99.90
13806;DHT22;6974;53.606;9.872;2023-07-24T00:57:42;18.60;99.90
13806;DHT22;6974;53.606;9.872;2023-07-24T01:00:11;18.60;99.90
13806;DHT22;6974;53.606;9.872;2023-07-24T01:02:38;18.60;99.90
13806;DHT22;6974;53.606;9.872;2023-07-24T01:05:05;18.60;99.90
13806;DHT22;6974;53.606;9.872;2023-07-24T01:07:32;18.60;99.90
13806;DHT22;6974;53.606;9.872;2023-07-24T01:09:59;18.60;99.90
13806;DHT22;6974;53.606;9.872;2023-07-24T01:12:31;18.60;99.90
13806;DHT22;6974;53.606;9.872;2023-07-24T01:15:03;18.60;99.90
13806;DHT22;6974;53.606;9.872;2023-07-24T01:17:39;18.60;99.90
13806;DHT22;6974;53.606;9.872;2023-07-24T01:20:09;18.60;99.90
13806;DHT22;6974;53.606;9.872;2023-07-24T01:22:39;18.60;99.90
13806;DHT22;6974;53.606;9.872;2023-07-24T01:25:13;18.70;99.90
13806;DHT22;6974;53.606;9.872;2023-07-24T01:27:46;18.70;99.90
13806;DHT22;6974;53.606;9.872;2023-07-24T01:30:16;18.60;99.90
13806;DHT22;6974;53.606;9.872;2023-07-24T01:32:43;18.70;99.90
13806;DHT22;6974;53.606;9.872;2023-07-24T01:35:10;18.70;99.90
13806;DHT22;6974;53.606;9.872;2023-07-24T01:37:38;18.60;99.90
13806;DHT22;6974;53.606;9.872;2023-07-24T01:40:07;18.60;99.90
13806;DHT22;6974;53.606;9.872;2023-07-24T01:42:34;18.70;99.90
13806;DHT22;6974;53.606;9.872;2023-07-24T01:45:04;18.60;99.90
13806;DHT22;6974;53.606;9.872;2023-07-24T01:47:32;18.60;99.90
13806;DHT22;6974;53.606;9.872;2023-07-24T01:49:59;18.60;99.90
13806;DHT22;6974;53.606;9.872;2023-07-24T01:52:26;18.60;99.90
13806;DHT22;6974;53.606;9.872;2023-07-24T01:54:53;18.70;99.90
13806;DHT22;6974;53.606;9.872;2023-07-24T01:57:19;18.70;99.90
13806;DHT22;6974;53.606;9.872;2023-07-24T01:59:46;18.60;99.90
13806;DHT22;6974;53.606;9.872;2023-07-24T02:02:15;18.60;99.90
13806;DHT22;6974;53.606;9.872;2023-07-24T02:04:42;18.60;99.90
13806;DHT22;6974;53.606;9.872;2023-07-24T02:07:09;18.60;99.90
13806;DHT22;6974;53.606;9.872;2023-07-24T02:09:36;18.60;99.90
13806;DHT22;6974;53.606;9.872;2023-07-24T02:12:03;18.60;99.90
13806;DHT22;6974;53.606;9.872;2023-07-24T02:14:30;18.60;99.90
13806;DHT22;6974;53.606;9.872;2023-07-24T02:16:57;18.50;99.90
13806;DHT22;6974;53.606;9.872;2023-07-24T02:19:26;18.50;99.90
13806;DHT22;6974;53.606;9.872;2023-07-24T02:21:52;18.60;99.90
13806;DHT22;6974;53.606;9.872;2023-07-24T02:24:19;18.60;99.90
13806;DHT22;6974;53.606;9.872;2023-07-24T02:26:46;18.50;99.90
13806;DHT22;6974;53.606;9.872;2023-07-24T02:29:13;18.60;99.90
13806;DHT22;6974;53.606;9.872;2023-07-24T02:31:40;18.50;99.90
13806;DHT22;6974;53.606;9.872;2023-07-24T02:34:06;18.50;99.90
13806;DHT22;6974;53.606;9.872;2023-07-24T02:36:35;18.50;99.90
13806;DHT22;6974;53.606;9.872;2023-07-24T02:39:01;18.50;99.90
13806;DHT22;6974;53.606;9.872;2023-07-24T02:41:28;18.50;99.90
13806;DHT22;6974;53.606;9.872;2023-07-24T02:43:55;18.50;99.90
13806;DHT22;6974;53.606;9.872;2023-07-24T02:46:22;18.50;99.90
13806;DHT22;6974;53.606;9.872;2023-07-24T02:48:50;18.50;99.90
13806;DHT22;6974;53.606;9.872;2023-07-24T02:51:17;18.50;99.90
13806;DHT22;6974;53.606;9.872;2023-07-24T02:53:45;18.50;99.90
13806;DHT22;6974;53.606;9.872;2023-07-24T02:56:12;18.50;99.90
13806;DHT22;6974;53.606;9.872;2023-07-24T02:58:38;18.50;99.90
13806;DHT22;6974;53.606;9.872;2023-07-24T03:01:06;18.50;99.90
13806;DHT22;6974;53.606;9.872;2023-07-24T03:03:34;18.40;99.90
13806;DHT22;6974;53.606;9.872;2023-07-24T03:06:02;18.40;99.90
13806;DHT22;6974;53.606;9.872;2023-07-24T03:08:29;18.50;99.90
13806;DHT22;6974;53.606;9.872;2023-07-24T03:10:57;18.60;99.90
13806;DHT22;6974;53.606;9.872;2023-07-24T03:13:24;18.50;99.90
13806;DHT22;6974;53.606;9.872;2023-07-24T03:15:54;18.50;99.90
13806;DHT22;6974;53.606;9.872;2023-07-24T03:18:22;18.50;99.90
13806;DHT22;6974;53.606;9.872;2023-07-24T03:20:49;18.60;99.90
13806;DHT22;6974;53.606;9.872;2023-07-24T03:23:16;18.60;99.90
13806;DHT22;6974;53.606;9.872;2023-07-24T03:25:43;18.60;99.90
13806;DHT22;6974;53.606;9.872;2023-07-24T03:28:11;18.50;99.90
13806;DHT22;6974;53.606;9.872;2023-07-24T03:30:38;18.50;99.90
13806;DHT22;6974;53.606;9.872;2023-07-24T03:33:05;18.50;99.90
13806;DHT22;6974;53.606;9.872;2023-07-24T03:35:32;18.50;99.90
13806;DHT22;6974;53.606;9.872;2023-07-24T03:37:59;18.50;99.90
13806;DHT22;6974;53.606;9.872;2023-07-24T03:40:25;18.50;99.90
13806;DHT22;6974;53.606;9.872;2023-07-24T03:42:52;18.50;99.90
13806;DHT22;6974;53.606;9.872;2023-07-24T03:45:21;18.50;99.90
13806;DHT22;6974;53.606;9.872;2023-07-24T03:47:47;18.50;99.90
13806;DHT22;6974;53.606;9.872;2023-07-24T03:50:14;18.50;99.90
13806;DHT22;6974;53.606;9.872;2023-07-24T03:52:41;18.50;99.90
13806;DHT22;6974;53.606;9.872;2023-07-24T03:55:08;18.50;99.90
13806;DHT22;6974;53.606;9.872;2023-07-24T03:57:36;18.50;99.90
13806;DHT22;6974;53.606;9.872;2023-07-24T04:00:03;18.50;99.90
13806;DHT22;6974;53.606;9.872;2023-07-24T04:02:31;18.40;99.90
13806;DHT22;6974;53.606;9.872;2023-07-24T04:04:58;18.50;99.90
13806;DHT22;6974;53.606;9.872;2023-07-24T04:07:25;18.40;99.90
13806;DHT22;6974;53.606;9.872;2023-07-24T04:09:52;18.40;99.90
13806;DHT22;6974;53.606;9.872;2023-07-24T04:12:19;18.40;99.90
13806;DHT22;6974;53.606;9.872;2023-07-24T04:14:46;18.40;99.90
13806;DHT22;6974;53.606;9.872;2023-07-24T04:17:14;18.40;99.90
13806;DHT22;6974;53.606;9.872;2023-07-24T04:19:42;18.40;99.90
13806;DHT22;6974;53.606;9.872;2023-07-24T04:22:09;18.40;99.90
13806;DHT22;6974;53.606;9.872;2023-07-24T04:24:36;18.40;99.90
13806;DHT22;6974;53.606;9.872;2023-07-24T04:27:03;18.40;99.90
13806;DHT22;6974;53.606;9.872;2023-07-24T04:29:30;18.40;99.90
13806;DHT22;6974;53.606;9.872;2023-07-24T04:31:57;18.40;99.90
13806;DHT22;6974;53.606;9.872;2023-07-24T04:34:24;18.40;99.90
13806;DHT22;6974;53.606;9.872;2023-07-24T04:36:52;18.40;99.90
13806;DHT22;6974;53.606;9.872;2023-07-24T04:39:19;18.40;99.90
13806;DHT22;6974;53.606;9.872;2023-07-24T04:41:46;18.40;99.90
13806;DHT22;6974;53.606;9.872;2023-07-24T04:44:12;18.50;99.90
13806;DHT22;6974;53.606;9.872;2023-07-24T04:46:40;18.50;99.90
13806;DHT22;6974;53.606;9.872;2023-07-24T04:49:07;18.50;99.90
13806;DHT22;6974;53.606;9.872;2023-07-24T04:51:34;18.50;99.90
13806;DHT22;6974;53.606;9.872;2023-07-24T04:54:02;18.50;99.90
13806;DHT22;6974;53.606;9.872;2023-07-24T04:56:29;18.50;99.90
13806;DHT22;6974;53.606;9.872;2023-07-24T04:58:56;18.50;99.90
13806;DHT22;6974;53.606;9.872;2023-07-24T05:01:23;18.50;99.90
13806;DHT22;6974;53.606;9.872;2023-07-24T05:03:49;18.50;99.90
13806;DHT22;6974;53.606;9.872;2023-07-24T05:06:16;18.50;99.90
13806;DHT22;6974;53.606;9.872;2023-07-24T05:08:43;18.50;99.90
13806;DHT22;6974;53.606;9.872;2023-07-24T05:11:11;18.60;99.90
13806;DHT22;6974;53.606;9.872;2023-07-24T05:13:38;18.50;99.90
13806;DHT22;6974;53.606;9.872;2023-07-24T05:16:05;18.60;99.90
13806;DHT22;6974;53.606;9.872;2023-07-24T05:18:32;18.60;99.90
13806;DHT22;6974;53.606;9.872;2023-07-24T05:20:59;18.60;99.90
13806;DHT22;6974;53.606;9.872;2023-07-24T05:23:25;18.60;99.90
13806;DHT22;6974;53.606;9.872;2023-07-24T05:25:56;18.80;99.90
13806;DHT22;6974;53.606;9.872;2023-07-24T05:28:25;18.80;99.90
13806;DHT22;6974;53.606;9.872;2023-07-24T05:30:52;18.80;99.90
13806;DHT22;6974;53.606;9.872;2023-07-24T05:33:19;18.90;99.90
13806;DHT22;6974;53.606;9.872;2023-07-24T05:35:47;18.80;99.90
13806;DHT22;6974;53.606;9.872;2023-07-24T05:38:14;18.90;99.90
13806;DHT22;6974;53.606;9.872;2023-07-24T05:40:41;18.90;99.90
13806;DHT22;6974;53.606;9.872;2023-07-24T05:43:08;19.00;99.90
13806;DHT22;6974;53.606;9.872;2023-07-24T05:45:36;19.00;99.90
13806;DHT22;6974;53.606;9.872;2023-07-24T05:48:03;18.90;99.90
13806;DHT22;6974;53.606;9.872;2023-07-24T05:50:30;19.00;99.90
13806;DHT22;6974;53.606;9.872;2023-07-24T05:52:57;18.90;99.90
13806;DHT22;6974;53.606;9.872;2023-07-24T05:55:24;19.00;99.90
13806;DHT22;6974;53.606;9.872;2023-07-24T05:57:50;19.00;99.90
13806;DHT22;6974;53.606;9.872;2023-07-24T06:00:18;19.00;99.90
13806;DHT22;6974;53.606;9.872;2023-07-24T06:02:46;19.00;99.90
13806;DHT22;6974;53.606;9.872;2023-07-24T06:05:13;19.00;99.90
13806;DHT22;6974;53.606;9.872;2023-07-24T06:07:40;19.00;99.90
13806;DHT22;6974;53.606;9.872;2023-07-24T06:10:07;19.00;99.90
13806;DHT22;6974;53.606;9.872;2023-07-24T06:12:34;19.10;99.90
13806;DHT22;6974;53.606;9.872;2023-07-24T06:15:01;19.10;99.90
13806;DHT22;6974;53.606;9.872;2023-07-24T06:17:28;19.20;99.90
13806;DHT22;6974;53.606;9.872;2023-07-24T06:19:57;19.30;99.90
13806;DHT22;6974;53.606;9.872;2023-07-24T06:22:23;19.40;99.90
13806;DHT22;6974;53.606;9.872;2023-07-24T06:24:50;19.40;99.90
13806;DHT22;6974;53.606;9.872;2023-07-24T06:27:17;19.40;99.90
13806;DHT22;6974;53.606;9.872;2023-07-24T06:29:44;19.50;99.90
13806;DHT22;6974;53.606;9.872;2023-07-24T06:32:11;19.50;99.90
13806;DHT22;6974;53.606;9.872;2023-07-24T06:34:37;19.50;99.90
13806;DHT22;6974;53.606;9.872;2023-07-24T06:37:06;19.50;99.90
13806;DHT22;6974;53.606;9.872;2023-07-24T06:39:32;19.50;99.90
13806;DHT22;6974;53.606;9.872;2023-07-24T06:41:59;19.50;99.90
13806;DHT22;6974;53.606;9.872;2023-07-24T06:44:26;19.50;99.90
13806;DHT22;6974;53.606;9.872;2023-07-24T06:46:53;19.50;99.90
13806;DHT22;6974;53.606;9.872;2023-07-24T06:49:20;19.60;99.90
13806;DHT22;6974;53.606;9.872;2023-07-24T06:51:47;19.60;99.90
13806;DHT22;6974;53.606;9.872;2023-07-24T06:54:15;19.50;99.90
13806;DHT22;6974;53.606;9.872;2023-07-24T06:56:42;19.50;99.90
13806;DHT22;6974;53.606;9.872;2023-07-24T06:59:08;19.60;99.90
13806;DHT22;6974;53.606;9.872;2023-07-24T07:01:35;19.60;99.90
13806;DHT22;6974;53.606;9.872;2023-07-24T07:04:02;19.50;99.90
13806;DHT22;6974;53.606;9.872;2023-07-24T07:06:29;19.50;99.90
13806;DHT22;6974;53.606;9.872;2023-07-24T07:08:56;19.50;99.90
13806;DHT22;6974;53.606;9.872;2023-07-24T07:11:24;19.50;99.90
13806;DHT22;6974;53.606;9.872;2023-07-24T07:13:51;19.40;99.90
13806;DHT22;6974;53.606;9.872;2023-07-24T07:16:18;19.40;99.90
13806;DHT22;6974;53.606;9.872;2023-07-24T07:18:45;19.40;99.90
13806;DHT22;6974;53.606;9.872;2023-07-24T07:21:12;19.40;99.90
13806;DHT22;6974;53.606;9.872;2023-07-24T07:23:39;19.40;99.90
13806;DHT22;6974;53.606;9.872;2023-07-24T07:26:05;19.40;99.90
13806;DHT22;6974;53.606;9.872;2023-07-24T07:28:33;19.40;99.90
13806;DHT22;6974;53.606;9.872;2023-07-24T07:31:00;19.40;99.90
13806;DHT22;6974;53.606;9.872;2023-07-24T07:33:27;19.40;99.90
13806;DHT22;6974;53.606;9.872;2023-07-24T07:35:54;19.40;99.90
13806;DHT22;6974;53.606;9.872;2023-07-24T07:38:21;19.40;99.90
13806;DHT22;6974;53.606;9.872;2023-07-24T07:40:49;19.50;99.90
13806;DHT22;6974;53.606;9.872;2023-07-24T07:43:16;19.50;99.90
13806;DHT22;6974;53.606;9.872;2023-07-24T07:45:44;19.60;99.90
13806;DHT22;6974;53.606;9.872;2023-07-24T07:48:12;19.60;99.90
13806;DHT22;6974;53.606;9.872;2023-07-24T07:50:39;19.70;99.90
13806;DHT22;6974;53.606;9.872;2023-07-24T07:53:06;19.70;99.90
13806;DHT22;6974;53.606;9.872;2023-07-24T07:55:33;19.70;99.90
13806;DHT22;6974;53.606;9.872;2023-07-24T07:58:00;19.70;99.90
13806;DHT22;6974;53.606;9.872;2023-07-24T08:00:26;19.80;99.90
13806;DHT22;6974;53.606;9.872;2023-07-24T08:02:55;19.80;99.90
13806;DHT22;6974;53.606;9.872;2023-07-24T08:05:21;19.80;99.90
13806;DHT22;6974;53.606;9.872;2023-07-24T08:07:48;19.80;99.90
13806;DHT22;6974;53.606;9.872;2023-07-24T08:10:15;19.80;99.90
13806;DHT22;6974;53.606;9.872;2023-07-24T08:12:42;19.90;99.90
13806;DHT22;6974;53.606;9.872;2023-07-24T08:15:09;19.90;99.90
13806;DHT22;6974;53.606;9.872;2023-07-24T08:17:37;19.90;99.90
13806;DHT22;6974;53.606;9.872;2023-07-24T08:20:06;19.90;99.90
13806;DHT22;6974;53.606;9.872;2023-07-24T08:22:33;19.90;99.90
13806;DHT22;6974;53.606;9.872;2023-07-24T08:25:00;19.90;99.90
13806;DHT22;6974;53.606;9.872;2023-07-24T08:27:27;19.90;99.90
13806;DHT22;6974;53.606;9.872;2023-07-24T08:29:55;19.90;99.90
13806;DHT22;6974;53.606;9.872;2023-07-24T08:32:22;19.90;99.90
13806;DHT22;6974;53.606;9.872;2023-07-24T08:34:48;20.00;99.90
13806;DHT22;6974;53.606;9.872;2023-07-24T08:37:17;20.00;99.90
13806;DHT22;6974;53.606;9.872;2023-07-24T08:39:43;20.00;99.90
13806;DHT22;6974;53.606;9.872;2023-07-24T08:42:11;20.00;99.90
13806;DHT22;6974;53.606;9.872;2023-07-24T08:44:39;20.10;99.90
13806;DHT22;6974;53.606;9.872;2023-07-24T08:47:10;20.10;99.90
13806;DHT22;6974;53.606;9.872;2023-07-24T08:49:38;20.20;99.90
13806;DHT22;6974;53.606;9.872;2023-07-24T08:52:06;20.30;99.90
13806;DHT22;6974;53.606;9.872;2023-07-24T08:54:35;20.30;99.90
13806;DHT22;6974;53.606;9.872;2023-07-24T08:57:05;20.40;99.90
13806;DHT22;6974;53.606;9.872;2023-07-24T08:59:32;20.40;99.90
13806;DHT22;6974;53.606;9.872;2023-07-24T09:01:59;20.50;99.90
13806;DHT22;6974;53.606;9.872;2023-07-24T09:04:26;20.50;99.90
13806;DHT22;6974;53.606;9.872;2023-07-24T09:06:53;20.50;99.90
13806;DHT22;6974;53.606;9.872;2023-07-24T09:09:22;20.60;99.90
13806;DHT22;6974;53.606;9.872;2023-07-24T09:11:52;20.60;99.90
13806;DHT22;6974;53.606;9.872;2023-07-24T09:14:23;20.70;99.90
13806;DHT22;6974;53.606;9.872;2023-07-24T09:17:01;20.70;99.90
13806;DHT22;6974;53.606;9.872;2023-07-24T09:19:28;20.70;99.90
13806;DHT22;6974;53.606;9.872;2023-07-24T09:21:55;20.80;99.90
13806;DHT22;6974;53.606;9.872;2023-07-24T09:24:22;20.90;99.90
13806;DHT22;6974;53.606;9.872;2023-07-24T09:26:52;20.90;99.90
13806;DHT22;6974;53.606;9.872;2023-07-24T09:29:19;20.90;99.90
13806;DHT22;6974;53.606;9.872;2023-07-24T09:31:46;21.00;99.90
13806;DHT22;6974;53.606;9.872;2023-07-24T09:34:16;21.00;99.90
13806;DHT22;6974;53.606;9.872;2023-07-24T09:36:44;20.90;99.90
13806;DHT22;6974;53.606;9.872;2023-07-24T09:39:11;20.90;99.90
13806;DHT22;6974;53.606;9.872;2023-07-24T09:41:38;20.90;99.90
13806;DHT22;6974;53.606;9.872;2023-07-24T09:44:07;20.90;99.90
13806;DHT22;6974;53.606;9.872;2023-07-24T09:46:34;20.90;99.90
13806;DHT22;6974;53.606;9.872;2023-07-24T09:49:01;20.90;99.90
13806;DHT22;6974;53.606;9.872;2023-07-24T09:51:29;21.10;99.90
13806;DHT22;6974;53.606;9.872;2023-07-24T09:54:00;21.30;99.90
13806;DHT22;6974;53.606;9.872;2023-07-24T09:56:28;21.60;99.90
13806;DHT22;6974;53.606;9.872;2023-07-24T09:58:56;21.60;99.90
13806;DHT22;6974;53.606;9.872;2023-07-24T10:01:26;21.70;99.90
13806;DHT22;6974;53.606;9.872;2023-07-24T10:03:54;21.70;99.90
13806;DHT22;6974;53.606;9.872;2023-07-24T10:06:21;21.70;99.90
13806;DHT22;6974;53.606;9.872;2023-07-24T10:08:49;21.70;99.90
13806;DHT22;6974;53.606;9.872;2023-07-24T10:11:16;21.80;99.90
13806;DHT22;6974;53.606;9.872;2023-07-24T10:13:43;21.80;99.90
13806;DHT22;6974;53.606;9.872;2023-07-24T10:16:11;21.80;99.90
13806;DHT22;6974;53.606;9.872;2023-07-24T10:18:45;21.70;99.90
13806;DHT22;6974;53.606;9.872;2023-07-24T10:21:12;21.70;99.90
13806;DHT22;6974;53.606;9.872;2023-07-24T10:23:42;21.60;99.90
13806;DHT22;6974;53.606;9.872;2023-07-24T10:26:09;21.60;99.90
13806;DHT22;6974;53.606;9.872;2023-07-24T10:28:38;21.80;99.90
13806;DHT22;6974;53.606;9.872;2023-07-24T10:31:06;21.90;99.90
13806;DHT22;6974;53.606;9.872;2023-07-24T10:33:35;22.10;99.90
13806;DHT22;6974;53.606;9.872;2023-07-24T10:36:06;22.10;99.90
13806;DHT22;6974;53.606;9.872;2023-07-24T10:38:36;22.20;99.90
13806;DHT22;6974;53.606;9.872;2023-07-24T10:41:05;22.20;99.90
13806;DHT22;6974;53.606;9.872;2023-07-24T10:43:40;22.20;99.90
13806;DHT22;6974;53.606;9.872;2023-07-24T10:46:08;22.30;99.90
13806;DHT22;6974;53.606;9.872;2023-07-24T10:48:35;22.40;99.90
13806;DHT22;6974;53.606;9.872;2023-07-24T10:51:08;22.50;99.90
13806;DHT22;6974;53.606;9.872;2023-07-24T10:53:36;22.60;99.90
13806;DHT22;6974;53.606;9.872;2023-07-24T10:56:03;22.60;99.90
13806;DHT22;6974;53.606;9.872;2023-07-24T10:58:31;22.60;99.90
13806;DHT22;6974;53.606;9.872;2023-07-24T11:00:58;22.60;99.90
13806;DHT22;6974;53.606;9.872;2023-07-24T11:03:25;22.80;99.90
13806;DHT22;6974;53.606;9.872;2023-07-24T11:05:52;23.10;99.90
13806;DHT22;6974;53.606;9.872;2023-07-24T11:08:20;23.20;99.90
13806;DHT22;6974;53.606;9.872;2023-07-24T11:10:48;23.40;99.90
13806;DHT22;6974;53.606;9.872;2023-07-24T11:13:16;23.50;99.90
13806;DHT22;6974;53.606;9.872;2023-07-24T11:15:44;23.60;99.90
13806;DHT22;6974;53.606;9.872;2023-07-24T11:18:10;23.80;99.90
13806;DHT22;6974;53.606;9.872;2023-07-24T11:20:39;23.90;99.90
13806;DHT22;6974;53.606;9.872;2023-07-24T11:23:10;24.10;99.90
13806;DHT22;6974;53.606;9.872;2023-07-24T11:25:38;24.10;99.90
13806;DHT22;6974;53.606;9.872;2023-07-24T11:28:06;24.10;99.90
13806;DHT22;6974;53.606;9.872;2023-07-24T11:30:33;24.00;99.90
13806;DHT22;6974;53.606;9.872;2023-07-24T11:33:01;23.90;99.90
13806;DHT22;6974;53.606;9.872;2023-07-24T11:35:29;23.80;99.90
13806;DHT22;6974;53.606;9.872;2023-07-24T11:37:56;23.80;99.90
13806;DHT22;6974;53.606;9.872;2023-07-24T11:40:31;23.80;99.90
13806;DHT22;6974;53.606;9.872;2023-07-24T11:43:00;23.90;99.90
13806;DHT22;6974;53.606;9.872;2023-07-24T11:45:27;23.90;99.90
13806;DHT22;6974;53.606;9.872;2023-07-24T11:47:54;23.80;99.90
13806;DHT22;6974;53.606;9.872;2023-07-24T11:50:22;23.70;99.90
13806;DHT22;6974;53.606;9.872;2023-07-24T11:52:50;23.60;99.90
13806;DHT22;6974;53.606;9.872;2023-07-24T11:55:20;23.50;99.90
13806;DHT22;6974;53.606;9.872;2023-07-24T11:57:56;23.40;99.90
13806;DHT22;6974;53.606;9.872;2023-07-24T12:00:25;23.40;99.90
13806;DHT22;6974;53.606;9.872;2023-07-24T12:02:53;23.60;99.90
13806;DHT22;6974;53.606;9.872;2023-07-24T12:05:20;23.80;99.90
13806;DHT22;6974;53.606;9.872;2023-07-24T12:07:47;24.00;99.90
13806;DHT22;6974;53.606;9.872;2023-07-24T12:10:25;24.30;99.90
13806;DHT22;6974;53.606;9.872;2023-07-24T12:12:52;24.50;99.90
13806;DHT22;6974;53.606;9.872;2023-07-24T12:15:19;24.80;99.90
13806;DHT22;6974;53.606;9.872;2023-07-24T12:17:48;25.00;99.90
13806;DHT22;6974;53.606;9.872;2023-07-24T12:20:14;25.10;99.90
13806;DHT22;6974;53.606;9.872;2023-07-24T12:22:41;25.10;99.90
13806;DHT22;6974;53.606;9.872;2023-07-24T12:25:08;25.20;99.90
13806;DHT22;6974;53.606;9.872;2023-07-24T12:27:35;25.40;99.90
13806;DHT22;6974;53.606;9.872;2023-07-24T12:30:03;25.50;99.90
13806;DHT22;6974;53.606;9.872;2023-07-24T12:32:31;25.40;99.90
13806;DHT22;6974;53.606;9.872;2023-07-24T12:34:59;25.30;99.90
13806;DHT22;6974;53.606;9.872;2023-07-24T12:37:26;25.20;99.90
13806;DHT22;6974;53.606;9.872;2023-07-24T12:39:54;25.10;99.90
13806;DHT22;6974;53.606;9.872;2023-07-24T12:42:20;25.10;99.90
13806;DHT22;6974;53.606;9.872;2023-07-24T12:44:48;25.20;99.90
13806;DHT22;6974;53.606;9.872;2023-07-24T12:47:15;25.20;99.90
13806;DHT22;6974;53.606;9.872;2023-07-24T12:49:42;25.40;99.90
13806;DHT22;6974;53.606;9.872;2023-07-24T12:52:11;25.40;99.90
13806;DHT22;6974;53.606;9.872;2023-07-24T12:54:38;25.60;99.90
13806;DHT22;6974;53.606;9.872;2023-07-24T12:57:05;25.70;99.90
13806;DHT22;6974;53.606;9.872;2023-07-24T12:59:32;25.80;99.90
13806;DHT22;6974;53.606;9.872;2023-07-24T13:01:59;25.90;99.90
13806;DHT22;6974;53.606;9.872;2023-07-24T13:04:26;26.00;99.90
13806;DHT22;6974;53.606;9.872;2023-07-24T13:06:52;26.00;99.90
13806;DHT22;6974;53.606;9.872;2023-07-24T13:09:21;26.00;99.90
13806;DHT22;6974;53.606;9.872;2023-07-24T13:11:49;26.10;99.90
13806;DHT22;6974;53.606;9.872;2023-07-24T13:14:17;26.20;99.90
13806;DHT22;6974;53.606;9.872;2023-07-24T13:16:44;26.20;99.90
13806;DHT22;6974;53.606;9.872;2023-07-24T13:19:11;26.20;99.90
13806;DHT22;6974;53.606;9.872;2023-07-24T13:21:38;26.30;99.90
13806;DHT22;6974;53.606;9.872;2023-07-24T13:24:05;26.30;99.90
13806;DHT22;6974;53.606;9.872;2023-07-24T13:26:34;26.20;99.90
13806;DHT22;6974;53.606;9.872;2023-07-24T13:29:00;26.10;99.90
13806;DHT22;6974;53.606;9.872;2023-07-24T13:31:27;26.10;99.90
13806;DHT22;6974;53.606;9.872;2023-07-24T13:33:54;26.20;99.90
13806;DHT22;6974;53.606;9.872;2023-07-24T13:36:21;26.40;99.90
13806;DHT22;6974;53.606;9.872;2023-07-24T13:38:48;26.50;99.90
13806;DHT22;6974;53.606;9.872;2023-07-24T13:41:15;26.50;99.90
13806;DHT22;6974;53.606;9.872;2023-07-24T13:43:44;26.50;99.90
13806;DHT22;6974;53.606;9.872;2023-07-24T13:46:10;26.40;99.90
13806;DHT22;6974;53.606;9.872;2023-07-24T13:48:37;26.30;99.90
13806;DHT22;6974;53.606;9.872;2023-07-24T13:51:04;26.40;99.90
13806;DHT22;6974;53.606;9.872;2023-07-24T13:53:31;26.50;99.90
13806;DHT22;6974;53.606;9.872;2023-07-24T13:55:58;26.50;99.90
13806;DHT22;6974;53.606;9.872;2023-07-24T13:58:25;26.70;99.90
13806;DHT22;6974;53.606;9.872;2023-07-24T14:00:53;26.60;99.90
13806;DHT22;6974;53.606;9.872;2023-07-24T14:03:20;26.40;99.90
13806;DHT22;6974;53.606;9.872;2023-07-24T14:05:46;26.10;99.90
13806;DHT22;6974;53.606;9.872;2023-07-24T14:08:13;25.90;99.90
13806;DHT22;6974;53.606;9.872;2023-07-24T14:10:40;25.70;99.90
13806;DHT22;6974;53.606;9.872;2023-07-24T14:13:07;25.60;99.90
13806;DHT22;6974;53.606;9.872;2023-07-24T14:15:34;25.40;99.90
13806;DHT22;6974;53.606;9.872;2023-07-24T14:18:02;25.40;99.90
13806;DHT22;6974;53.606;9.872;2023-07-24T14:20:29;25.30;99.90
13806;DHT22;6974;53.606;9.872;2023-07-24T14:22:56;25.30;99.90
13806;DHT22;6974;53.606;9.872;2023-07-24T14:25:22;25.20;99.90
13806;DHT22;6974;53.606;9.872;2023-07-24T14:27:49;25.10;99.90
13806;DHT22;6974;53.606;9.872;2023-07-24T14:30:16;25.20;99.90
13806;DHT22;6974;53.606;9.872;2023-07-24T14:32:43;25.20;99.90
13806;DHT22;6974;53.606;9.872;2023-07-24T14:35:11;25.30;99.90
13806;DHT22;6974;53.606;9.872;2023-07-24T14:37:38;25.40;99.90
13806;DHT22;6974;53.606;9.872;2023-07-24T14:40:06;25.30;99.90
13806;DHT22;6974;53.606;9.872;2023-07-24T14:42:33;25.30;99.90
13806;DHT22;6974;53.606;9.872;2023-07-24T14:45:00;25.20;99.90
13806;DHT22;6974;53.606;9.872;2023-07-24T14:47:28;25.20;99.90
13806;DHT22;6974;53.606;9.872;2023-07-24T14:49:56;25.10;99.90
13806;DHT22;6974;53.606;9.872;2023-07-24T14:52:25;25.00;99.90
13806;DHT22;6974;53.606;9.872;2023-07-24T14:54:51;25.00;99.90
13806;DHT22;6974;53.606;9.872;2023-07-24T14:57:18;24.70;99.90
13806;DHT22;6974;53.606;9.872;2023-07-24T14:59:45;24.50;99.90
13806;DHT22;6974;53.606;9.872;2023-07-24T15:02:12;24.30;99.90
13806;DHT22;6974;53.606;9.872;2023-07-24T15:04:39;24.20;99.90
13806;DHT22;6974;53.606;9.872;2023-07-24T15:07:05;24.10;99.90
13806;DHT22;6974;53.606;9.872;2023-07-24T15:09:34;24.00;99.90
13806;DHT22;6974;53.606;9.872;2023-07-24T15:12:00;24.00;99.90
13806;DHT22;6974;53.606;9.872;2023-07-24T15:14:27;23.80;99.90
13806;DHT22;6974;53.606;9.872;2023-07-24T15:16:54;23.80;99.90
13806;DHT22;6974;53.606;9.872;2023-07-24T15:19:21;23.60;99.90
13806;DHT22;6974;53.606;9.872;2023-07-24T15:21:48;23.50;99.90
13806;DHT22;6974;53.606;9.872;2023-07-24T15:24:15;23.30;99.90
13806;DHT22;6974;53.606;9.872;2023-07-24T15:26:44;22.60;99.90
13806;DHT22;6974;53.606;9.872;2023-07-24T15:29:12;21.80;99.90
13806;DHT22;6974;53.606;9.872;2023-07-24T15:31:40;21.30;99.90
13806;DHT22;6974;53.606;9.872;2023-07-24T15:34:07;20.80;99.90
13806;DHT22;6974;53.606;9.872;2023-07-24T15:36:35;20.50;99.90
13806;DHT22;6974;53.606;9.872;2023-07-24T15:39:03;20.20;99.90
13806;DHT22;6974;53.606;9.872;2023-07-24T15:41:30;20.10;99.90
13806;DHT22;6974;53.606;9.872;2023-07-24T15:43:58;20.00;99.90
13806;DHT22;6974;53.606;9.872;2023-07-24T15:46:25;19.90;99.90